Home   Weather   Siracusa   Past weeks
Flag for Italy

Past Weather in Siracusa, Italy — Yesterday and Last 2 Weeks

Currently: 84 °F. Sunny. (Weather station: Catania / Fontanarossa, Italy). See more current weather

Past Weather in Siracusa — Graph

°F

Siracusa Temperature Yesterday

Maximum temperature yesterday: 91 °F (at 11:20 am)
Minimum temperature yesterday: 73 °F (at 1:20 am)
Average temperature yesterday: 83 °F

High & Low Weather Summary for the Past Weeks

 TemperatureHumidityPressure
High99 °F (Jun 25, 10:50 am)100% (Jun 30, 2:50 am)30.07 "Hg (Jun 30, 2:50 am)
Low63 °F (Jun 16, 4:20 am)21% (Jun 25, 10:50 am)29.80 "Hg (Jun 29, 5:20 pm)
Average80 °F56%29.96 "Hg
* Reported Jun 15 4:50 pm — Jun 30 4:50 pm, Siracusa. Weather by CustomWeather, © 2022

Note: Actual official high and low records may vary slightly from our data, if they occured in-between our weather recording intervals... More about our weather records

Siracusa Weather History for the Previous 24 Hours

Scroll right to see more
 ConditionsComfort  
Time TempWeatherWind HumidityBarometerVisibility
4:50 pm
Thu, Jun 30
86 °FSunny.13 mph62%29.86 "Hg10 mi
4:20 pm86 °FSunny.10 mph66%29.86 "Hg10 mi
3:20 pm86 °FSunny.13 mph59%29.86 "Hg10 mi
1:50 pm86 °FPassing clouds.12 mph59%29.89 "HgN/A
1:20 pm88 °FSunny.12 mph52%29.89 "Hg10 mi
12:50 pm88 °FSunny.14 mph49%29.89 "Hg10 mi
12:20 pm88 °FPassing clouds.13 mph49%29.89 "HgN/A
11:50 am90 °FSunny.10 mph46%29.89 "Hg10 mi
11:20 am90 °FPassing clouds.9 mph49%29.89 "HgN/A
10:50 am91 °FSunny.2 mph44%29.89 "Hg10 mi
10:20 am88 °FPassing clouds.7 mph55%29.92 "HgN/A
9:50 am86 °FSunny.13 mph62%29.92 "Hg10 mi
9:20 am84 °FPassing clouds.3 mph66%29.89 "HgN/A
8:50 am84 °FPassing clouds.7 mph66%29.86 "HgN/A
8:20 am82 °FSunny.2 mph74%29.86 "Hg10 mi
7:20 am79 °FPassing clouds.3 mph100%29.86 "HgN/A
6:50 am75 °FSunny.5 mph100%29.86 "Hg10 mi
6:20 am73 °FPassing clouds.5 mph100%29.86 "HgN/A
5:50 am75 °FSunny.14 mph100%29.86 "Hg10 mi
5:20 am72 °FClear.2 mph100%29.80 "Hg10 mi
4:20 am75 °FClear.2 mph100%29.83 "Hg10 mi
3:50 am77 °FClear.3 mph100%29.83 "Hg10 mi
3:20 am77 °FClear.3 mph100%29.83 "Hg10 mi
2:50 am77 °FClear.8 mph100%29.86 "Hg10 mi
1:20 am77 °FClear.6 mph89%29.86 "Hg10 mi
12:50 am77 °FPassing clouds.3 mph83%29.86 "HgN/A
12:20 am79 °FClear.2 mph84%29.86 "Hg10 mi
11:50 pm
Wed, Jun 29
79 °FClear.5 mph84%29.86 "Hg10 mi
11:20 pm79 °FClear.5 mph84%29.86 "Hg10 mi
10:50 pm82 °FClear.5 mph74%29.83 "Hg10 mi
10:20 pm82 °FClear.7 mph74%29.83 "Hg10 mi
9:20 pm82 °FClear.9 mph74%29.83 "Hg10 mi
8:20 pm84 °FSunny.13 mph74%29.80 "Hg10 mi
7:50 pm84 °FSunny.12 mph70%29.80 "Hg10 mi
7:20 pm84 °FSunny.13 mph74%29.80 "Hg10 mi
Weather by CustomWeather, © 2022

See weather overview